Broome, Australia
Current Conditions -  °F | °C
As of 5:00 PM on Monday 24 Nov 2014 (Local Time) from YBRM Reporting Station
Clear Clear  
Wind Chill: 90°   Ceiling: Unl
Heat Index: 100°   Visibility: 6mi
Dew Point: 75°   Wind: 13mph
Humidity: 62%   Direction: 290°WNW
Pressure: 29.71"   Gusts: NA
Location:  17.57°S, 122.22°E
Report Text: YBRM 240900Z 29011KT CAVOK 32/24 Q1006
Loading
Personal Weather Stations






























Interactive Weather Map New forecast layout! Learn more

10-Day Weather Forecast

Advertisements
Track Severe Weather on mobile